sensor_id;sensor_type;location;lat;lon;timestamp;P1;durP1;ratioP1;P2;durP2;ratioP2
19645;SDS011;9971;52.446;13.452;2022-11-20T00:04:19;5.20;;;4.50;;
19645;SDS011;9971;52.446;13.452;2022-11-20T00:09:21;4.50;;;4.10;;
19645;SDS011;9971;52.446;13.452;2022-11-20T00:14:24;4.97;;;4.58;;
19645;SDS011;9971;52.446;13.452;2022-11-20T00:19:26;5.97;;;5.45;;
19645;SDS011;9971;52.446;13.452;2022-11-20T00:24:29;4.30;;;3.92;;
19645;SDS011;9971;52.446;13.452;2022-11-20T00:29:31;5.00;;;4.60;;
19645;SDS011;9971;52.446;13.452;2022-11-20T00:34:34;5.40;;;5.00;;
19645;SDS011;9971;52.446;13.452;2022-11-20T00:39:36;5.58;;;5.08;;
19645;SDS011;9971;52.446;13.452;2022-11-20T00:44:39;4.97;;;4.53;;
19645;SDS011;9971;52.446;13.452;2022-11-20T00:49:41;4.73;;;4.33;;
19645;SDS011;9971;52.446;13.452;2022-11-20T00:54:44;5.90;;;5.30;;
19645;SDS011;9971;52.446;13.452;2022-11-20T00:59:46;5.50;;;5.00;;
19645;SDS011;9971;52.446;13.452;2022-11-20T01:04:49;5.58;;;5.08;;
19645;SDS011;9971;52.446;13.452;2022-11-20T01:09:51;5.17;;;4.78;;
19645;SDS011;9971;52.446;13.452;2022-11-20T01:14:53;5.80;;;5.30;;
19645;SDS011;9971;52.446;13.452;2022-11-20T01:19:56;5.70;;;5.20;;
19645;SDS011;9971;52.446;13.452;2022-11-20T01:24:58;4.95;;;4.55;;
19645;SDS011;9971;52.446;13.452;2022-11-20T01:30:01;4.72;;;4.37;;
19645;SDS011;9971;52.446;13.452;2022-11-20T01:35:04;5.10;;;4.70;;
19645;SDS011;9971;52.446;13.452;2022-11-20T01:40:07;5.45;;;5.00;;
19645;SDS011;9971;52.446;13.452;2022-11-20T01:50:24;5.43;;;4.93;;
19645;SDS011;9971;52.446;13.452;2022-11-20T01:55:27;4.97;;;4.57;;
19645;SDS011;9971;52.446;13.452;2022-11-20T02:00:28;3.93;;;3.53;;
19645;SDS011;9971;52.446;13.452;2022-11-20T02:05:32;3.98;;;3.40;;
19645;SDS011;9971;52.446;13.452;2022-11-20T02:10:35;4.70;;;4.25;;
19645;SDS011;9971;52.446;13.452;2022-11-20T02:15:38;3.95;;;3.65;;
19645;SDS011;9971;52.446;13.452;2022-11-20T02:20:42;4.73;;;4.33;;
19645;SDS011;9971;52.446;13.452;2022-11-20T02:25:43;5.03;;;4.62;;
19645;SDS011;9971;52.446;13.452;2022-11-20T02:30:45;4.83;;;4.43;;
19645;SDS011;9971;52.446;13.452;2022-11-20T02:35:48;4.70;;;4.30;;
19645;SDS011;9971;52.446;13.452;2022-11-20T02:40:50;4.53;;;4.20;;
19645;SDS011;9971;52.446;13.452;2022-11-20T02:45:53;4.55;;;4.25;;
19645;SDS011;9971;52.446;13.452;2022-11-20T02:50:55;4.03;;;3.63;;
19645;SDS011;9971;52.446;13.452;2022-11-20T02:55:58;4.08;;;3.75;;
19645;SDS011;9971;52.446;13.452;2022-11-20T03:01:00;4.83;;;4.42;;
19645;SDS011;9971;52.446;13.452;2022-11-20T03:06:03;4.12;;;3.83;;
19645;SDS011;9971;52.446;13.452;2022-11-20T03:11:06;3.37;;;3.12;;
19645;SDS011;9971;52.446;13.452;2022-11-20T03:16:09;4.03;;;3.70;;
19645;SDS011;9971;52.446;13.452;2022-11-20T03:21:11;4.20;;;3.90;;
19645;SDS011;9971;52.446;13.452;2022-11-20T03:26:21;4.43;;;4.03;;
19645;SDS011;9971;52.446;13.452;2022-11-20T03:31:25;4.33;;;4.03;;
19645;SDS011;9971;52.446;13.452;2022-11-20T03:36:26;3.67;;;3.37;;
19645;SDS011;9971;52.446;13.452;2022-11-20T03:41:29;3.70;;;3.40;;
19645;SDS011;9971;52.446;13.452;2022-11-20T03:46:30;5.73;;;4.60;;
19645;SDS011;9971;52.446;13.452;2022-11-20T03:51:34;4.07;;;3.77;;
19645;SDS011;9971;52.446;13.452;2022-11-20T03:56:36;4.13;;;3.73;;
19645;SDS011;9971;52.446;13.452;2022-11-20T04:01:36;3.97;;;3.67;;
19645;SDS011;9971;52.446;13.452;2022-11-20T04:06:39;2.83;;;2.62;;
19645;SDS011;9971;52.446;13.452;2022-11-20T04:11:41;3.50;;;3.20;;
19645;SDS011;9971;52.446;13.452;2022-11-20T04:16:44;2.22;;;2.10;;
19645;SDS011;9971;52.446;13.452;2022-11-20T04:21:46;2.70;;;2.50;;
19645;SDS011;9971;52.446;13.452;2022-11-20T04:26:49;3.10;;;2.90;;
19645;SDS011;9971;52.446;13.452;2022-11-20T04:31:51;4.95;;;4.55;;
19645;SDS011;9971;52.446;13.452;2022-11-20T04:36:54;6.03;;;5.43;;
19645;SDS011;9971;52.446;13.452;2022-11-20T04:41:56;4.95;;;4.55;;
19645;SDS011;9971;52.446;13.452;2022-11-20T04:47:04;5.10;;;4.70;;
19645;SDS011;9971;52.446;13.452;2022-11-20T04:52:06;4.22;;;3.92;;
19645;SDS011;9971;52.446;13.452;2022-11-20T04:57:09;3.22;;;2.92;;
19645;SDS011;9971;52.446;13.452;2022-11-20T05:02:11;3.20;;;3.00;;
19645;SDS011;9971;52.446;13.452;2022-11-20T05:07:14;3.00;;;2.80;;
19645;SDS011;9971;52.446;13.452;2022-11-20T05:12:16;5.63;;;5.13;;
19645;SDS011;9971;52.446;13.452;2022-11-20T05:17:19;6.05;;;5.53;;
19645;SDS011;9971;52.446;13.452;2022-11-20T05:22:21;4.28;;;3.87;;
19645;SDS011;9971;52.446;13.452;2022-11-20T05:27:23;4.97;;;4.57;;
19645;SDS011;9971;52.446;13.452;2022-11-20T05:32:26;4.75;;;4.35;;
19645;SDS011;9971;52.446;13.452;2022-11-20T05:37:28;4.85;;;4.33;;
19645;SDS011;9971;52.446;13.452;2022-11-20T05:42:31;4.45;;;4.00;;
19645;SDS011;9971;52.446;13.452;2022-11-20T05:47:33;6.78;;;5.95;;
19645;SDS011;9971;52.446;13.452;2022-11-20T05:52:35;6.20;;;5.70;;
19645;SDS011;9971;52.446;13.452;2022-11-20T05:57:38;4.42;;;4.12;;
19645;SDS011;9971;52.446;13.452;2022-11-20T06:02:40;4.05;;;3.75;;
19645;SDS011;9971;52.446;13.452;2022-11-20T06:07:43;3.27;;;3.08;;
19645;SDS011;9971;52.446;13.452;2022-11-20T06:12:45;2.95;;;2.75;;
19645;SDS011;9971;52.446;13.452;2022-11-20T06:17:51;3.75;;;3.45;;
19645;SDS011;9971;52.446;13.452;2022-11-20T06:22:50;5.33;;;4.83;;
19645;SDS011;9971;52.446;13.452;2022-11-20T06:27:52;5.03;;;4.62;;
19645;SDS011;9971;52.446;13.452;2022-11-20T06:32:55;5.22;;;4.72;;
19645;SDS011;9971;52.446;13.452;2022-11-20T06:37:57;4.80;;;4.40;;
19645;SDS011;9971;52.446;13.452;2022-11-20T06:43:00;4.65;;;4.25;;
19645;SDS011;9971;52.446;13.452;2022-11-20T06:48:02;5.60;;;5.10;;
19645;SDS011;9971;52.446;13.452;2022-11-20T06:53:04;5.70;;;5.20;;
19645;SDS011;9971;52.446;13.452;2022-11-20T06:58:07;5.30;;;4.80;;
19645;SDS011;9971;52.446;13.452;2022-11-20T07:03:09;4.90;;;4.50;;
19645;SDS011;9971;52.446;13.452;2022-11-20T07:08:11;4.77;;;4.37;;
19645;SDS011;9971;52.446;13.452;2022-11-20T07:13:13;5.93;;;5.37;;
19645;SDS011;9971;52.446;13.452;2022-11-20T07:18:15;6.70;;;6.10;;
19645;SDS011;9971;52.446;13.452;2022-11-20T07:23:18;5.92;;;5.42;;
19645;SDS011;9971;52.446;13.452;2022-11-20T07:28:20;5.92;;;5.35;;
19645;SDS011;9971;52.446;13.452;2022-11-20T07:33:23;5.70;;;5.20;;
19645;SDS011;9971;52.446;13.452;2022-11-20T07:38:25;4.90;;;4.50;;
19645;SDS011;9971;52.446;13.452;2022-11-20T07:43:28;5.30;;;4.80;;
19645;SDS011;9971;52.446;13.452;2022-11-20T07:48:30;3.65;;;3.35;;
19645;SDS011;9971;52.446;13.452;2022-11-20T07:53:32;6.15;;;5.65;;
19645;SDS011;9971;52.446;13.452;2022-11-20T07:58:34;7.08;;;6.37;;
19645;SDS011;9971;52.446;13.452;2022-11-20T08:03:37;6.47;;;5.87;;
19645;SDS011;9971;52.446;13.452;2022-11-20T08:08:39;6.83;;;6.12;;
19645;SDS011;9971;52.446;13.452;2022-11-20T08:13:42;8.13;;;7.33;;
19645;SDS011;9971;52.446;13.452;2022-11-20T08:18:49;8.77;;;6.87;;
19645;SDS011;9971;52.446;13.452;2022-11-20T08:23:52;8.57;;;7.73;;
19645;SDS011;9971;52.446;13.452;2022-11-20T08:28:54;5.62;;;5.08;;
19645;SDS011;9971;52.446;13.452;2022-11-20T08:33:56;6.13;;;5.17;;
19645;SDS011;9971;52.446;13.452;2022-11-20T08:38:58;12.07;;;9.38;;
19645;SDS011;9971;52.446;13.452;2022-11-20T08:44:01;9.93;;;8.93;;
19645;SDS011;9971;52.446;13.452;2022-11-20T08:49:03;8.48;;;7.58;;
19645;SDS011;9971;52.446;13.452;2022-11-20T08:54:05;5.85;;;5.30;;
19645;SDS011;9971;52.446;13.452;2022-11-20T08:59:07;6.13;;;5.27;;
19645;SDS011;9971;52.446;13.452;2022-11-20T09:04:10;6.65;;;5.97;;
19645;SDS011;9971;52.446;13.452;2022-11-20T09:09:12;7.05;;;6.33;;
19645;SDS011;9971;52.446;13.452;2022-11-20T09:14:15;7.47;;;6.78;;
19645;SDS011;9971;52.446;13.452;2022-11-20T09:19:17;4.97;;;4.58;;
19645;SDS011;9971;52.446;13.452;2022-11-20T09:24:20;6.12;;;5.62;;
19645;SDS011;9971;52.446;13.452;2022-11-20T09:29:22;5.30;;;4.80;;
19645;SDS011;9971;52.446;13.452;2022-11-20T09:34:25;7.60;;;6.90;;
19645;SDS011;9971;52.446;13.452;2022-11-20T09:39:27;5.67;;;5.17;;
19645;SDS011;9971;52.446;13.452;2022-11-20T09:44:47;7.10;;;6.45;;
19645;SDS011;9971;52.446;13.452;2022-11-20T09:55:23;5.60;;;5.10;;
19645;SDS011;9971;52.446;13.452;2022-11-20T10:00:25;6.03;;;5.43;;
19645;SDS011;9971;52.446;13.452;2022-11-20T10:05:28;5.13;;;4.63;;
19645;SDS011;9971;52.446;13.452;2022-11-20T10:10:40;7.12;;;6.42;;
19645;SDS011;9971;52.446;13.452;2022-11-20T10:15:45;6.80;;;6.20;;
19645;SDS011;9971;52.446;13.452;2022-11-20T10:20:48;6.23;;;5.73;;
19645;SDS011;9971;52.446;13.452;2022-11-20T10:25:59;6.70;;;6.13;;
19645;SDS011;9971;52.446;13.452;2022-11-20T10:31:00;4.63;;;4.23;;
19645;SDS011;9971;52.446;13.452;2022-11-20T10:36:07;6.73;;;6.23;;
19645;SDS011;9971;52.446;13.452;2022-11-20T10:41:16;6.23;;;5.63;;
19645;SDS011;9971;52.446;13.452;2022-11-20T10:46:18;7.07;;;6.43;;
19645;SDS011;9971;52.446;13.452;2022-11-20T10:51:25;6.45;;;5.80;;
19645;SDS011;9971;52.446;13.452;2022-11-20T10:56:26;7.00;;;6.30;;
19645;SDS011;9971;52.446;13.452;2022-11-20T11:01:26;7.07;;;6.37;;
19645;SDS011;9971;52.446;13.452;2022-11-20T11:06:34;6.47;;;5.87;;
19645;SDS011;9971;52.446;13.452;2022-11-20T11:11:37;5.47;;;4.83;;
19645;SDS011;9971;52.446;13.452;2022-11-20T11:21:53;4.70;;;4.30;;
19645;SDS011;9971;52.446;13.452;2022-11-20T11:26:59;4.70;;;4.30;;
19645;SDS011;9971;52.446;13.452;2022-11-20T11:32:04;4.53;;;4.13;;
19645;SDS011;9971;52.446;13.452;2022-11-20T11:37:05;5.65;;;4.78;;
19645;SDS011;9971;52.446;13.452;2022-11-20T11:42:07;6.97;;;6.37;;
19645;SDS011;9971;52.446;13.452;2022-11-20T11:52:27;6.63;;;6.00;;
19645;SDS011;9971;52.446;13.452;2022-11-20T11:57:31;7.10;;;6.50;;
19645;SDS011;9971;52.446;13.452;2022-11-20T12:02:35;7.07;;;6.37;;
19645;SDS011;9971;52.446;13.452;2022-11-20T12:07:39;5.83;;;5.33;;
19645;SDS011;9971;52.446;13.452;2022-11-20T12:12:41;7.85;;;7.05;;
19645;SDS011;9971;52.446;13.452;2022-11-20T12:17:42;9.57;;;7.70;;
19645;SDS011;9971;52.446;13.452;2022-11-20T12:22:53;9.53;;;8.55;;
19645;SDS011;9971;52.446;13.452;2022-11-20T12:28:06;8.65;;;7.75;;
19645;SDS011;9971;52.446;13.452;2022-11-20T12:33:27;6.13;;;5.53;;
19645;SDS011;9971;52.446;13.452;2022-11-20T12:38:33;6.17;;;5.57;;
19645;SDS011;9971;52.446;13.452;2022-11-20T12:43:38;5.63;;;5.13;;
19645;SDS011;9971;52.446;13.452;2022-11-20T12:49:02;5.73;;;4.43;;
19645;SDS011;9971;52.446;13.452;2022-11-20T12:55:13;4.93;;;4.50;;
19645;SDS011;9971;52.446;13.452;2022-11-20T12:59:56;4.30;;;3.97;;
19645;SDS011;9971;52.446;13.452;2022-11-20T13:05:03;3.80;;;3.50;;
19645;SDS011;9971;52.446;13.452;2022-11-20T13:10:26;4.43;;;4.03;;
19645;SDS011;9971;52.446;13.452;2022-11-20T13:15:31;4.23;;;3.83;;
19645;SDS011;9971;52.446;13.452;2022-11-20T13:20:34;4.00;;;3.63;;
19645;SDS011;9971;52.446;13.452;2022-11-20T13:25:38;4.30;;;3.90;;
19645;SDS011;9971;52.446;13.452;2022-11-20T13:35:55;3.77;;;3.33;;
19645;SDS011;9971;52.446;13.452;2022-11-20T13:40:57;3.60;;;3.30;;
19645;SDS011;9971;52.446;13.452;2022-11-20T13:46:00;3.40;;;3.02;;
19645;SDS011;9971;52.446;13.452;2022-11-20T13:51:04;2.93;;;2.63;;
19645;SDS011;9971;52.446;13.452;2022-11-20T13:56:05;4.60;;;4.20;;
19645;SDS011;9971;52.446;13.452;2022-11-20T14:01:08;5.53;;;5.03;;
19645;SDS011;9971;52.446;13.452;2022-11-20T14:06:11;6.30;;;5.70;;
19645;SDS011;9971;52.446;13.452;2022-11-20T14:11:16;5.35;;;4.05;;
19645;SDS011;9971;52.446;13.452;2022-11-20T14:16:20;2.10;;;1.90;;
19645;SDS011;9971;52.446;13.452;2022-11-20T14:21:25;2.37;;;2.17;;
19645;SDS011;9971;52.446;13.452;2022-11-20T14:26:26;0.70;;;0.70;;
19645;SDS011;9971;52.446;13.452;2022-11-20T14:31:28;0.37;;;0.37;;
19645;SDS011;9971;52.446;13.452;2022-11-20T14:36:30;0.30;;;0.30;;
19645;SDS011;9971;52.446;13.452;2022-11-20T14:41:33;0.75;;;0.75;;
19645;SDS011;9971;52.446;13.452;2022-11-20T14:46:35;5.40;;;4.07;;
19645;SDS011;9971;52.446;13.452;2022-11-20T14:51:38;5.60;;;4.63;;
19645;SDS011;9971;52.446;13.452;2022-11-20T14:56:39;3.90;;;3.60;;
19645;SDS011;9971;52.446;13.452;2022-11-20T15:01:41;4.60;;;4.20;;
19645;SDS011;9971;52.446;13.452;2022-11-20T15:06:49;3.73;;;3.43;;
19645;SDS011;9971;52.446;13.452;2022-11-20T15:11:52;4.53;;;3.93;;
19645;SDS011;9971;52.446;13.452;2022-11-20T15:16:54;3.70;;;3.37;;
19645;SDS011;9971;52.446;13.452;2022-11-20T15:21:56;4.10;;;3.60;;
19645;SDS011;9971;52.446;13.452;2022-11-20T15:26:59;3.95;;;3.65;;
19645;SDS011;9971;52.446;13.452;2022-11-20T15:32:01;3.40;;;3.10;;
19645;SDS011;9971;52.446;13.452;2022-11-20T15:37:03;3.17;;;2.87;;
19645;SDS011;9971;52.446;13.452;2022-11-20T15:42:06;2.70;;;2.50;;
19645;SDS011;9971;52.446;13.452;2022-11-20T15:47:08;3.62;;;3.25;;
19645;SDS011;9971;52.446;13.452;2022-11-20T15:52:10;3.60;;;3.20;;
19645;SDS011;9971;52.446;13.452;2022-11-20T15:57:12;5.70;;;4.80;;
19645;SDS011;9971;52.446;13.452;2022-11-20T16:02:15;4.05;;;3.62;;
19645;SDS011;9971;52.446;13.452;2022-11-20T16:07:17;4.00;;;3.60;;
19645;SDS011;9971;52.446;13.452;2022-11-20T16:12:20;4.37;;;3.90;;
19645;SDS011;9971;52.446;13.452;2022-11-20T16:17:39;3.70;;;3.40;;
19645;SDS011;9971;52.446;13.452;2022-11-20T16:22:44;3.67;;;3.07;;
19645;SDS011;9971;52.446;13.452;2022-11-20T16:27:46;4.75;;;4.35;;
19645;SDS011;9971;52.446;13.452;2022-11-20T16:32:49;4.08;;;3.60;;
19645;SDS011;9971;52.446;13.452;2022-11-20T16:37:51;4.13;;;3.83;;
19645;SDS011;9971;52.446;13.452;2022-11-20T16:42:53;4.20;;;3.80;;
19645;SDS011;9971;52.446;13.452;2022-11-20T16:47:56;5.10;;;4.62;;
19645;SDS011;9971;52.446;13.452;2022-11-20T16:52:58;3.92;;;3.62;;
19645;SDS011;9971;52.446;13.452;2022-11-20T16:58:01;4.95;;;4.55;;
19645;SDS011;9971;52.446;13.452;2022-11-20T17:03:03;6.08;;;5.28;;
19645;SDS011;9971;52.446;13.452;2022-11-20T17:08:05;5.80;;;5.30;;
19645;SDS011;9971;52.446;13.452;2022-11-20T17:13:08;4.50;;;4.10;;
19645;SDS011;9971;52.446;13.452;2022-11-20T17:18:10;4.53;;;4.12;;
19645;SDS011;9971;52.446;13.452;2022-11-20T17:23:12;3.42;;;3.12;;
19645;SDS011;9971;52.446;13.452;2022-11-20T17:28:15;3.90;;;3.60;;
19645;SDS011;9971;52.446;13.452;2022-11-20T17:33:17;2.87;;;2.50;;
19645;SDS011;9971;52.446;13.452;2022-11-20T17:38:20;2.35;;;2.15;;
19645;SDS011;9971;52.446;13.452;2022-11-20T17:43:22;3.00;;;2.80;;
19645;SDS011;9971;52.446;13.452;2022-11-20T17:48:25;3.08;;;2.85;;
19645;SDS011;9971;52.446;13.452;2022-11-20T17:53:27;3.37;;;3.08;;
19645;SDS011;9971;52.446;13.452;2022-11-20T17:58:29;3.20;;;2.90;;
19645;SDS011;9971;52.446;13.452;2022-11-20T18:03:32;4.78;;;4.28;;
19645;SDS011;9971;52.446;13.452;2022-11-20T18:08:34;4.12;;;3.80;;
19645;SDS011;9971;52.446;13.452;2022-11-20T18:13:37;4.13;;;3.73;;
19645;SDS011;9971;52.446;13.452;2022-11-20T18:18:54;3.57;;;3.27;;
19645;SDS011;9971;52.446;13.452;2022-11-20T18:23:56;3.92;;;3.52;;
19645;SDS011;9971;52.446;13.452;2022-11-20T18:28:58;4.63;;;3.90;;
19645;SDS011;9971;52.446;13.452;2022-11-20T18:34:00;3.02;;;2.72;;
19645;SDS011;9971;52.446;13.452;2022-11-20T18:39:02;3.90;;;3.50;;
19645;SDS011;9971;52.446;13.452;2022-11-20T18:44:06;4.63;;;4.17;;
19645;SDS011;9971;52.446;13.452;2022-11-20T18:49:12;4.40;;;4.00;;
19645;SDS011;9971;52.446;13.452;2022-11-20T18:54:14;4.23;;;3.83;;
19645;SDS011;9971;52.446;13.452;2022-11-20T18:59:17;4.15;;;3.75;;
19645;SDS011;9971;52.446;13.452;2022-11-20T19:04:18;3.93;;;3.60;;
19645;SDS011;9971;52.446;13.452;2022-11-20T19:09:21;6.65;;;6.05;;
19645;SDS011;9971;52.446;13.452;2022-11-20T19:14:23;4.90;;;4.50;;
19645;SDS011;9971;52.446;13.452;2022-11-20T19:19:25;4.28;;;3.85;;
19645;SDS011;9971;52.446;13.452;2022-11-20T19:24:28;4.93;;;4.53;;
19645;SDS011;9971;52.446;13.452;2022-11-20T19:29:30;4.85;;;4.42;;
19645;SDS011;9971;52.446;13.452;2022-11-20T19:34:32;4.58;;;4.17;;
19645;SDS011;9971;52.446;13.452;2022-11-20T19:39:35;5.75;;;5.15;;
19645;SDS011;9971;52.446;13.452;2022-11-20T19:44:37;3.50;;;3.20;;
19645;SDS011;9971;52.446;13.452;2022-11-20T19:49:39;4.28;;;3.90;;
19645;SDS011;9971;52.446;13.452;2022-11-20T19:54:42;4.30;;;3.90;;
19645;SDS011;9971;52.446;13.452;2022-11-20T19:59:44;4.75;;;4.35;;
19645;SDS011;9971;52.446;13.452;2022-11-20T20:04:47;4.22;;;3.90;;
19645;SDS011;9971;52.446;13.452;2022-11-20T20:09:49;4.42;;;4.03;;
19645;SDS011;9971;52.446;13.452;2022-11-20T20:14:52;3.55;;;3.25;;
19645;SDS011;9971;52.446;13.452;2022-11-20T20:19:54;4.40;;;4.00;;
19645;SDS011;9971;52.446;13.452;2022-11-20T20:24:57;6.27;;;5.67;;
19645;SDS011;9971;52.446;13.452;2022-11-20T20:29:59;6.78;;;6.10;;
19645;SDS011;9971;52.446;13.452;2022-11-20T20:35:02;8.33;;;7.25;;
19645;SDS011;9971;52.446;13.452;2022-11-20T20:40:04;8.43;;;6.87;;
19645;SDS011;9971;52.446;13.452;2022-11-20T20:45:07;7.50;;;6.50;;
19645;SDS011;9971;52.446;13.452;2022-11-20T20:50:10;7.75;;;5.75;;
19645;SDS011;9971;52.446;13.452;2022-11-20T20:55:11;4.83;;;4.33;;
19645;SDS011;9971;52.446;13.452;2022-11-20T21:00:14;14.00;;;9.33;;
19645;SDS011;9971;52.446;13.452;2022-11-20T21:05:16;16.90;;;11.03;;
19645;SDS011;9971;52.446;13.452;2022-11-20T21:10:19;10.98;;;8.03;;
19645;SDS011;9971;52.446;13.452;2022-11-20T21:15:21;11.85;;;9.13;;
19645;SDS011;9971;52.446;13.452;2022-11-20T21:20:24;8.58;;;6.85;;
19645;SDS011;9971;52.446;13.452;2022-11-20T21:25:34;10.30;;;7.40;;
19645;SDS011;9971;52.446;13.452;2022-11-20T21:30:34;9.60;;;6.90;;
19645;SDS011;9971;52.446;13.452;2022-11-20T21:35:36;8.07;;;5.73;;
19645;SDS011;9971;52.446;13.452;2022-11-20T21:40:38;5.83;;;4.90;;
19645;SDS011;9971;52.446;13.452;2022-11-20T21:45:41;5.80;;;4.03;;
19645;SDS011;9971;52.446;13.452;2022-11-20T21:50:43;4.17;;;3.77;;
19645;SDS011;9971;52.446;13.452;2022-11-20T22:00:53;3.60;;;3.13;;
19645;SDS011;9971;52.446;13.452;2022-11-20T22:05:56;2.50;;;2.17;;
19645;SDS011;9971;52.446;13.452;2022-11-20T22:10:59;2.33;;;1.97;;
19645;SDS011;9971;52.446;13.452;2022-11-20T22:16:00;1.60;;;1.50;;
19645;SDS011;9971;52.446;13.452;2022-11-20T22:21:04;0.70;;;0.70;;
19645;SDS011;9971;52.446;13.452;2022-11-20T22:26:06;0.97;;;0.90;;
19645;SDS011;9971;52.446;13.452;2022-11-20T22:31:08;0.60;;;0.60;;
19645;SDS011;9971;52.446;13.452;2022-11-20T22:36:11;0.27;;;0.27;;
19645;SDS011;9971;52.446;13.452;2022-11-20T22:41:14;0.50;;;0.50;;
19645;SDS011;9971;52.446;13.452;2022-11-20T22:46:17;0.42;;;0.40;;
19645;SDS011;9971;52.446;13.452;2022-11-20T22:51:19;0.55;;;0.55;;
19645;SDS011;9971;52.446;13.452;2022-11-20T22:56:21;0.30;;;0.30;;
19645;SDS011;9971;52.446;13.452;2022-11-20T23:01:24;0.43;;;0.40;;
19645;SDS011;9971;52.446;13.452;2022-11-20T23:06:25;0.20;;;0.20;;
19645;SDS011;9971;52.446;13.452;2022-11-20T23:11:28;0.70;;;0.70;;
19645;SDS011;9971;52.446;13.452;2022-11-20T23:16:30;0.80;;;0.80;;
19645;SDS011;9971;52.446;13.452;2022-11-20T23:21:31;2.10;;;1.90;;
19645;SDS011;9971;52.446;13.452;2022-11-20T23:26:34;1.03;;;1.00;;
19645;SDS011;9971;52.446;13.452;2022-11-20T23:31:35;0.60;;;0.60;;
19645;SDS011;9971;52.446;13.452;2022-11-20T23:36:38;0.93;;;0.93;;
19645;SDS011;9971;52.446;13.452;2022-11-20T23:41:40;0.90;;;0.90;;
19645;SDS011;9971;52.446;13.452;2022-11-20T23:46:43;0.30;;;0.30;;
19645;SDS011;9971;52.446;13.452;2022-11-20T23:51:45;0.23;;;0.23;;
19645;SDS011;9971;52.446;13.452;2022-11-20T23:56:48;2.50;;;2.30;;
